Time;durP1;ratioP1;P1;durP2;ratioP2;P2;SDS_P1;SDS_P2;PMS_P1;PMS_P2;Temp;Humidity;BMP_temperature;BMP_pressure;BME280_temperature;BME280_humidity;BME280_pressure;Samples;Min_cycle;Max_cycle;Signal;HPM_P1;HPM_P2
2022/08/10 00:02:38;;;;;;;8.07;4.03;;;;;;;;;;4992554;28;20053;-48
2022/08/10 00:05:05;;;;;;;6.57;4.18;;;;;;;;;;4988950;28;20477;-51
2022/08/10 00:07:32;;;;;;;8.07;4.20;;;;;;;;;;4992470;28;20042;-51
2022/08/10 00:09:59;;;;;;;8.10;4.10;;;;;;;;;;4993460;28;20030;-49
2022/08/10 00:12:26;;;;;;;9.18;4.07;;;;;;;;;;4995297;28;20026;-49
2022/08/10 00:14:53;;;;;;;10.13;3.95;;;;;;;;;;4995817;28;20035;-48
2022/08/10 00:17:20;;;;;;;11.90;4.25;;;;;;;;;;4995859;28;20484;-49
2022/08/10 00:19:47;;;;;;;17.52;4.57;;;;;;;;;;4995891;28;20121;-50
2022/08/10 00:22:14;;;;;;;14.35;4.50;;;;;;;;;;4981612;28;20046;-51
2022/08/10 00:24:41;;;;;;;17.38;3.92;;;;;;;;;;4998171;28;20134;-54
2022/08/10 00:27:08;;;;;;;10.77;4.55;;;;;;;;;;4995007;28;20076;-55
2022/08/10 00:29:35;;;;;;;13.35;4.32;;;;;;;;;;4993951;28;20362;-54
2022/08/10 00:32:02;;;;;;;14.60;4.07;;;;;;;;;;4993463;28;20061;-55
2022/08/10 00:34:30;;;;;;;19.02;4.53;;;;;;;;;;4995399;28;20153;-51
2022/08/10 00:36:57;;;;;;;17.88;3.67;;;;;;;;;;4995071;28;20080;-53
2022/08/10 00:39:24;;;;;;;8.98;3.72;;;;;;;;;;4994174;28;20034;-49
2022/08/10 00:41:51;;;;;;;16.42;3.42;;;;;;;;;;4993908;28;20026;-50
2022/08/10 00:44:18;;;;;;;13.02;4.30;;;;;;;;;;4994949;28;20034;-51
2022/08/10 00:46:45;;;;;;;10.90;3.63;;;;;;;;;;4994707;28;20146;-51
2022/08/10 00:49:12;;;;;;;11.32;3.95;;;;;;;;;;4994711;28;20106;-51
2022/08/10 00:51:40;;;;;;;10.25;3.60;;;;;;;;;;4977063;28;20097;-51
2022/08/10 00:54:07;;;;;;;13.18;4.18;;;;;;;;;;4994513;28;20057;-54
2022/08/10 00:56:35;;;;;;;12.18;4.32;;;;;;;;;;4975703;28;20389;-56
2022/08/10 00:59:02;;;;;;;22.08;5.72;;;;;;;;;;4975716;28;20034;-53
2022/08/10 01:01:29;;;;;;;14.40;6.75;;;;;;;;;;4992468;28;20039;-53
2022/08/10 01:03:56;;;;;;;20.85;8.25;;;;;;;;;;4994836;28;20388;-53
2022/08/10 01:06:30;;;;;;;24.90;8.90;;;;;;;;;;4994879;28;20029;-56
2022/08/10 01:09:03;;;;;;;24.85;8.02;;;;;;;;;;4994604;28;20109;-55
2022/08/10 01:11:30;;;;;;;25.58;8.90;;;;;;;;;;4994819;28;20022;-52
2022/08/10 01:14:09;;;;;;;19.40;8.95;;;;;;;;;;4994259;28;20030;-55
2022/08/10 01:16:45;;;;;;;19.98;8.65;;;;;;;;;;4994084;28;20069;-53
2022/08/10 01:19:30;;;;;;;18.95;8.45;;;;;;;;;;4994493;28;20085;-51
2022/08/10 01:21:58;;;;;;;16.02;7.68;;;;;;;;;;4994602;28;20027;-53
2022/08/10 01:24:34;;;;;;;22.92;7.90;;;;;;;;;;4977054;28;20080;-55
2022/08/10 01:27:16;;;;;;;19.50;7.85;;;;;;;;;;4994804;28;20018;-54
2022/08/10 01:29:55;;;;;;;18.05;7.70;;;;;;;;;;4994174;28;20038;-56
2022/08/10 01:32:42;;;;;;;17.60;7.22;;;;;;;;;;4994180;28;20509;-56
2022/08/10 01:35:12;;;;;;;18.67;6.97;;;;;;;;;;4987372;28;20104;-54
2022/08/10 01:37:43;;;;;;;18.60;6.43;;;;;;;;;;4980044;28;20037;-51
2022/08/10 01:40:12;;;;;;;19.55;6.65;;;;;;;;;;4980234;28;20023;-54
2022/08/10 01:42:40;;;;;;;15.85;5.82;;;;;;;;;;4984197;28;20057;-52
2022/08/10 01:45:09;;;;;;;17.48;6.40;;;;;;;;;;4993944;28;20089;-50
2022/08/10 01:50:45;;;;;;;22.23;6.47;;;;;;;;;;4994442;28;20046;-51
2022/08/10 01:53:13;;;;;;;17.33;5.70;;;;;;;;;;4994300;28;20027;-54
2022/08/10 01:55:41;;;;;;;11.80;5.20;;;;;;;;;;4986612;28;20133;-51
2022/08/10 01:58:09;;;;;;;13.55;4.95;;;;;;;;;;4976817;28;20064;-54
2022/08/10 02:00:38;;;;;;;11.00;5.05;;;;;;;;;;4973831;28;20030;-51
2022/08/10 02:03:07;;;;;;;11.15;4.50;;;;;;;;;;4972614;28;20023;-51
2022/08/10 02:05:36;;;;;;;14.00;4.75;;;;;;;;;;4973669;28;20027;-51
2022/08/10 02:08:04;;;;;;;10.05;4.00;;;;;;;;;;4978786;28;20038;-55
2022/08/10 02:10:33;;;;;;;9.43;4.32;;;;;;;;;;4980226;28;20026;-54
2022/08/10 02:13:01;;;;;;;7.60;3.60;;;;;;;;;;4979036;28;20080;-53
2022/08/10 02:15:32;;;;;;;11.25;4.07;;;;;;;;;;4973612;28;20030;-56
2022/08/10 02:18:01;;;;;;;12.07;4.10;;;;;;;;;;4973955;28;20421;-52
2022/08/10 02:20:33;;;;;;;9.75;3.88;;;;;;;;;;4973466;28;20568;-49
2022/08/10 02:23:07;;;;;;;9.82;3.45;;;;;;;;;;4973467;28;20031;-53
2022/08/10 02:25:34;;;;;;;12.15;3.67;;;;;;;;;;4973643;28;20061;-55
2022/08/10 02:28:02;;;;;;;9.23;3.50;;;;;;;;;;4987030;28;20073;-53
2022/08/10 02:30:30;;;;;;;10.85;3.45;;;;;;;;;;4993475;28;20023;-54
2022/08/10 02:32:58;;;;;;;6.55;2.90;;;;;;;;;;4992677;28;20065;-55
2022/08/10 02:35:26;;;;;;;8.38;3.17;;;;;;;;;;4980015;28;20065;-54
2022/08/10 02:37:55;;;;;;;8.30;2.85;;;;;;;;;;4995836;28;20085;-54
2022/08/10 02:40:24;;;;;;;9.80;3.45;;;;;;;;;;4992493;28;20041;-55
2022/08/10 02:42:55;;;;;;;11.90;2.75;;;;;;;;;;4970369;28;20038;-55
2022/08/10 02:45:26;;;;;;;11.98;3.65;;;;;;;;;;4991774;28;20023;-56
2022/08/10 02:47:57;;;;;;;11.27;3.40;;;;;;;;;;4984121;28;20034;-54
2022/08/10 02:50:26;;;;;;;16.88;3.53;;;;;;;;;;4982925;28;20033;-56
2022/08/10 02:53:16;;;;;;;11.60;3.17;;;;;;;;;;4982001;28;20029;-56
2022/08/10 02:55:46;;;;;;;13.23;3.92;;;;;;;;;;4991335;28;20481;-56
2022/08/10 02:58:20;;;;;;;10.10;3.58;;;;;;;;;;4960215;28;20027;-54
2022/08/10 03:00:49;;;;;;;6.95;3.20;;;;;;;;;;4973795;28;20034;-55
2022/08/10 03:03:21;;;;;;;8.68;2.80;;;;;;;;;;4973951;28;20097;-56
2022/08/10 03:05:51;;;;;;;10.25;3.33;;;;;;;;;;4973800;28;20046;-54
2022/08/10 03:08:23;;;;;;;6.53;2.58;;;;;;;;;;4973688;28;20485;-56
2022/08/10 03:10:51;;;;;;;12.95;3.58;;;;;;;;;;4973751;28;20029;-53
2022/08/10 03:13:18;;;;;;;8.73;2.58;;;;;;;;;;4973694;28;20509;-55
2022/08/10 03:15:46;;;;;;;6.95;2.63;;;;;;;;;;4973635;28;20042;-55
2022/08/10 03:18:14;;;;;;;9.82;2.67;;;;;;;;;;4973632;28;20038;-55
2022/08/10 03:20:42;;;;;;;7.20;2.72;;;;;;;;;;4973691;28;20055;-56
2022/08/10 03:23:19;;;;;;;9.00;2.72;;;;;;;;;;4973575;28;20038;-52
2022/08/10 03:25:47;;;;;;;5.38;2.63;;;;;;;;;;4973535;28;20038;-56
2022/08/10 03:28:15;;;;;;;8.02;2.83;;;;;;;;;;4973398;28;20038;-55
2022/08/10 03:30:43;;;;;;;7.43;2.40;;;;;;;;;;4973542;28;20037;-55
2022/08/10 03:33:10;;;;;;;6.35;2.53;;;;;;;;;;4973409;28;20059;-55
2022/08/10 03:35:37;;;;;;;6.55;2.58;;;;;;;;;;4973389;28;20116;-56
2022/08/10 03:38:04;;;;;;;9.73;2.67;;;;;;;;;;4973542;28;20030;-55
2022/08/10 03:40:34;;;;;;;7.72;2.38;;;;;;;;;;4973546;28;20363;-56
2022/08/10 03:43:02;;;;;;;5.68;2.30;;;;;;;;;;4957684;28;20030;-55
2022/08/10 03:45:31;;;;;;;4.90;2.30;;;;;;;;;;4977290;28;20023;-55
2022/08/10 03:47:58;;;;;;;8.68;2.53;;;;;;;;;;4977368;28;20496;-55
2022/08/10 03:50:27;;;;;;;4.45;1.80;;;;;;;;;;4977390;28;20027;-56
2022/08/10 03:52:54;;;;;;;7.15;2.17;;;;;;;;;;4977545;28;20448;-55
2022/08/10 03:55:22;;;;;;;7.18;1.83;;;;;;;;;;4977176;28;20101;-56
2022/08/10 03:57:49;;;;;;;5.07;2.20;;;;;;;;;;4977146;28;20034;-55
2022/08/10 04:00:20;;;;;;;5.10;2.03;;;;;;;;;;4977111;28;20046;-54
2022/08/10 04:02:47;;;;;;;4.25;2.10;;;;;;;;;;4977048;28;20061;-54
2022/08/10 04:05:14;;;;;;;5.47;2.35;;;;;;;;;;4977089;28;20378;-56
2022/08/10 04:07:42;;;;;;;5.53;2.13;;;;;;;;;;4977005;28;20031;-55
2022/08/10 04:10:09;;;;;;;2.60;1.70;;;;;;;;;;4976964;28;20030;-54
2022/08/10 04:12:36;;;;;;;4.40;1.73;;;;;;;;;;4976968;28;20025;-54
2022/08/10 04:15:03;;;;;;;3.45;1.80;;;;;;;;;;4976790;28;20061;-56
2022/08/10 04:17:30;;;;;;;5.00;1.70;;;;;;;;;;4976815;28;20027;-57
2022/08/10 04:19:58;;;;;;;3.40;1.70;;;;;;;;;;4976593;28;20038;-55
2022/08/10 04:22:27;;;;;;;5.55;1.77;;;;;;;;;;4976686;28;20029;-55
2022/08/10 04:24:55;;;;;;;3.45;1.75;;;;;;;;;;4976582;28;20026;-55
2022/08/10 04:27:26;;;;;;;3.85;1.88;;;;;;;;;;4976532;28;20065;-51
2022/08/10 04:29:54;;;;;;;3.22;1.35;;;;;;;;;;4976632;28;20037;-56
2022/08/10 04:32:22;;;;;;;3.65;1.73;;;;;;;;;;4976392;28;20531;-54
2022/08/10 04:34:50;;;;;;;3.38;1.30;;;;;;;;;;4976320;28;20038;-56
2022/08/10 04:37:20;;;;;;;2.58;1.60;;;;;;;;;;4976551;28;20058;-56
2022/08/10 04:39:47;;;;;;;3.67;1.42;;;;;;;;;;4976463;28;20097;-55
2022/08/10 04:42:14;;;;;;;3.33;1.40;;;;;;;;;;4976543;28;20118;-54
2022/08/10 04:44:42;;;;;;;2.55;1.60;;;;;;;;;;4976321;28;20050;-55
2022/08/10 04:47:09;;;;;;;4.15;1.50;;;;;;;;;;4976216;28;20129;-55
2022/08/10 04:49:36;;;;;;;2.65;1.60;;;;;;;;;;4976253;28;20079;-56
2022/08/10 04:52:03;;;;;;;5.20;1.77;;;;;;;;;;4976187;28;20489;-56
2022/08/10 04:54:30;;;;;;;5.15;1.60;;;;;;;;;;4975423;28;20109;-56
2022/08/10 04:56:57;;;;;;;2.55;1.33;;;;;;;;;;4976159;28;20130;-53
2022/08/10 04:59:24;;;;;;;2.80;1.70;;;;;;;;;;4975979;28;20393;-55
2022/08/10 05:01:51;;;;;;;2.47;1.48;;;;;;;;;;4976095;28;20031;-55
2022/08/10 05:04:18;;;;;;;3.50;1.30;;;;;;;;;;4975804;28;20030;-56
2022/08/10 05:06:45;;;;;;;4.38;1.58;;;;;;;;;;4976235;28;20522;-55
2022/08/10 05:09:12;;;;;;;2.67;1.25;;;;;;;;;;4975857;28;20031;-54
2022/08/10 05:11:39;;;;;;;3.97;1.60;;;;;;;;;;4975715;28;20039;-56
2022/08/10 05:14:06;;;;;;;5.43;1.45;;;;;;;;;;4975858;28;20114;-54
2022/08/10 05:16:33;;;;;;;2.90;1.48;;;;;;;;;;4975756;28;20026;-55
2022/08/10 05:19:00;;;;;;;3.25;1.20;;;;;;;;;;4975724;28;20409;-56
2022/08/10 05:21:27;;;;;;;3.53;1.45;;;;;;;;;;4975896;28;20108;-53
2022/08/10 05:23:54;;;;;;;2.22;1.40;;;;;;;;;;4975742;28;20026;-53
2022/08/10 05:26:21;;;;;;;2.35;1.27;;;;;;;;;;4975532;28;20031;-55
2022/08/10 05:28:48;;;;;;;1.55;1.02;;;;;;;;;;4975636;28;20061;-52
2022/08/10 05:31:15;;;;;;;4.25;1.65;;;;;;;;;;4975537;28;20030;-55
2022/08/10 05:33:42;;;;;;;2.08;1.10;;;;;;;;;;4975228;28;20054;-55
2022/08/10 05:36:09;;;;;;;2.50;1.33;;;;;;;;;;4975235;28;20031;-55
2022/08/10 05:38:37;;;;;;;2.92;1.10;;;;;;;;;;4975475;28;20165;-56
2022/08/10 05:41:04;;;;;;;2.05;1.10;;;;;;;;;;4975347;28;20027;-55
2022/08/10 05:43:32;;;;;;;2.20;1.08;;;;;;;;;;4975249;28;20400;-56
2022/08/10 05:45:58;;;;;;;2.53;1.00;;;;;;;;;;4974997;28;20129;-54
2022/08/10 05:48:25;;;;;;;2.05;1.10;;;;;;;;;;4975230;28;20393;-51
2022/08/10 05:50:52;;;;;;;2.58;1.02;;;;;;;;;;4975280;28;20034;-55
2022/08/10 05:53:19;;;;;;;1.10;1.00;;;;;;;;;;4975144;28;20102;-55
2022/08/10 05:55:46;;;;;;;2.47;1.10;;;;;;;;;;4975312;28;20034;-52
2022/08/10 05:58:13;;;;;;;2.28;0.90;;;;;;;;;;4975008;28;20031;-55
2022/08/10 06:00:42;;;;;;;1.55;1.00;;;;;;;;;;4974585;28;20434;-56
2022/08/10 06:03:10;;;;;;;1.67;1.10;;;;;;;;;;4992179;28;20096;-52
2022/08/10 06:05:38;;;;;;;1.85;1.15;;;;;;;;;;4993992;28;20019;-55
2022/08/10 06:08:08;;;;;;;2.35;1.27;;;;;;;;;;4993499;28;20034;-54
2022/08/10 06:10:39;;;;;;;1.15;1.02;;;;;;;;;;4994214;28;20042;-53
2022/08/10 06:15:53;;;;;;;1.30;0.80;;;;;;;;;;4994238;28;20097;-56
2022/08/10 06:18:20;;;;;;;1.40;1.08;;;;;;;;;;4994049;28;20028;-55
2022/08/10 06:20:47;;;;;;;1.45;0.90;;;;;;;;;;4994142;28;20022;-53
2022/08/10 06:23:14;;;;;;;1.40;1.00;;;;;;;;;;4993911;28;20105;-57
2022/08/10 06:25:41;;;;;;;2.78;0.95;;;;;;;;;;4976449;28;20396;-53
2022/08/10 06:28:10;;;;;;;2.40;1.10;;;;;;;;;;4993724;28;20038;-52
2022/08/10 06:30:38;;;;;;;1.58;0.90;;;;;;;;;;4993912;28;20061;-55
2022/08/10 06:33:06;;;;;;;1.00;0.80;;;;;;;;;;4993680;28;20057;-53
2022/08/10 06:35:34;;;;;;;1.35;0.70;;;;;;;;;;4993414;28;20027;-56
2022/08/10 06:38:02;;;;;;;1.10;0.80;;;;;;;;;;4993765;28;20057;-55
2022/08/10 06:40:32;;;;;;;1.48;0.85;;;;;;;;;;4993772;28;20030;-55
2022/08/10 06:43:00;;;;;;;2.75;0.75;;;;;;;;;;5155336;22;20443;-60
2022/08/10 06:45:31;;;;;;;1.55;0.80;;;;;;;;;;5013556;28;20041;-55
2022/08/10 06:48:01;;;;;;;1.20;0.70;;;;;;;;;;5013910;28;20030;-57
2022/08/10 06:50:35;;;;;;;1.48;0.70;;;;;;;;;;5013163;28;20495;-57
2022/08/10 06:53:03;;;;;;;1.50;0.70;;;;;;;;;;5013126;28;20032;-57
2022/08/10 06:55:31;;;;;;;1.40;0.88;;;;;;;;;;5013262;28;20033;-57
2022/08/10 06:57:59;;;;;;;2.63;0.90;;;;;;;;;;5013121;28;20056;-56
2022/08/10 07:00:28;;;;;;;1.45;0.90;;;;;;;;;;5012940;28;20077;-55
2022/08/10 07:02:57;;;;;;;1.27;0.77;;;;;;;;;;5013225;28;20156;-55
2022/08/10 07:05:25;;;;;;;1.45;0.60;;;;;;;;;;5012912;28;20025;-55
2022/08/10 07:07:54;;;;;;;0.70;0.60;;;;;;;;;;5012950;28;20022;-53
2022/08/10 07:10:24;;;;;;;1.50;0.93;;;;;;;;;;5012891;28;20022;-58
2022/08/10 07:12:52;;;;;;;1.20;0.90;;;;;;;;;;5012621;28;20380;-53
2022/08/10 07:15:19;;;;;;;1.10;0.65;;;;;;;;;;5012897;28;20088;-54
2022/08/10 07:17:47;;;;;;;2.10;0.80;;;;;;;;;;5012629;28;20049;-55
2022/08/10 07:20:18;;;;;;;1.15;0.80;;;;;;;;;;5012898;28;20030;-55
2022/08/10 07:22:49;;;;;;;1.40;0.70;;;;;;;;;;5012791;28;20026;-55
2022/08/10 07:25:18;;;;;;;1.77;0.90;;;;;;;;;;5012877;28;20018;-53
2022/08/10 07:27:45;;;;;;;1.63;0.80;;;;;;;;;;5012597;28;20049;-54
2022/08/10 07:30:12;;;;;;;0.60;0.60;;;;;;;;;;5012803;28;20049;-54
2022/08/10 07:32:43;;;;;;;1.75;0.80;;;;;;;;;;5012715;28;20084;-53
2022/08/10 07:35:11;;;;;;;1.67;0.80;;;;;;;;;;5012544;28;20364;-54
2022/08/10 07:37:39;;;;;;;0.70;0.57;;;;;;;;;;5012717;28;20111;-55
2022/08/10 07:40:08;;;;;;;2.55;0.63;;;;;;;;;;5012543;28;20026;-55
2022/08/10 07:42:36;;;;;;;2.58;0.57;;;;;;;;;;5012410;28;20080;-51
2022/08/10 07:45:05;;;;;;;1.17;0.47;;;;;;;;;;5012485;28;20429;-56
2022/08/10 07:47:33;;;;;;;4.88;0.70;;;;;;;;;;5012449;28;20105;-55
2022/08/10 07:50:02;;;;;;;1.02;0.50;;;;;;;;;;5012577;28;20034;-55
2022/08/10 07:52:33;;;;;;;1.05;0.80;;;;;;;;;;5012548;28;20030;-51
2022/08/10 07:55:01;;;;;;;2.70;0.70;;;;;;;;;;5012528;28;20096;-55
2022/08/10 07:57:29;;;;;;;0.68;0.50;;;;;;;;;;5012560;28;20028;-56
2022/08/10 07:59:59;;;;;;;0.98;0.40;;;;;;;;;;5012460;28;20022;-55
2022/08/10 08:02:45;;;;;;;1.40;0.70;;;;;;;;;;5012399;28;20029;-56
2022/08/10 08:05:12;;;;;;;2.60;0.60;;;;;;;;;;5012298;28;20033;-54
2022/08/10 08:07:40;;;;;;;1.00;0.60;;;;;;;;;;5012426;28;20018;-55
2022/08/10 08:10:10;;;;;;;1.58;0.50;;;;;;;;;;5012447;28;20498;-53
2022/08/10 08:12:38;;;;;;;1.27;0.70;;;;;;;;;;5012144;28;20069;-53
2022/08/10 08:15:07;;;;;;;0.90;0.55;;;;;;;;;;5012270;28;20030;-56
2022/08/10 08:17:34;;;;;;;0.80;0.60;;;;;;;;;;5012714;28;20026;-54
2022/08/10 08:20:02;;;;;;;1.33;0.40;;;;;;;;;;5012499;28;20032;-55
2022/08/10 08:22:30;;;;;;;2.28;0.70;;;;;;;;;;5012145;28;20018;-56
2022/08/10 08:24:57;;;;;;;1.25;0.60;;;;;;;;;;5012146;28;20483;-55
2022/08/10 08:27:24;;;;;;;1.45;0.60;;;;;;;;;;5012341;28;20052;-54
2022/08/10 08:29:52;;;;;;;0.70;0.52;;;;;;;;;;5013034;28;20101;-56
2022/08/10 08:32:23;;;;;;;0.95;0.73;;;;;;;;;;5015649;28;20076;-55
2022/08/10 08:34:53;;;;;;;1.10;0.60;;;;;;;;;;5015845;28;20029;-55
2022/08/10 08:37:22;;;;;;;0.95;0.60;;;;;;;;;;5015603;28;20033;-56
2022/08/10 08:39:49;;;;;;;1.10;0.45;;;;;;;;;;5015715;28;20029;-55
2022/08/10 08:42:34;;;;;;;0.65;0.50;;;;;;;;;;5015209;28;20022;-52
2022/08/10 08:45:07;;;;;;;1.95;0.57;;;;;;;;;;5015649;28;20033;-55
2022/08/10 08:47:40;;;;;;;1.17;0.60;;;;;;;;;;5015407;28;20018;-55
2022/08/10 08:50:16;;;;;;;2.17;0.63;;;;;;;;;;5015535;28;20484;-56
2022/08/10 08:53:18;;;;;;;0.50;0.50;;;;;;;;;;5015293;28;20029;-56
2022/08/10 08:55:51;;;;;;;0.65;0.60;;;;;;;;;;4916777;29;20036;-53
2022/08/10 08:58:27;;;;;;;1.20;0.40;;;;;;;;;;5000198;28;20083;-54
2022/08/10 09:01:18;;;;;;;1.52;0.60;;;;;;;;;;5015104;28;20072;-53
2022/08/10 09:03:55;;;;;;;0.73;0.40;;;;;;;;;;5015321;28;20442;-53
2022/08/10 09:06:28;;;;;;;1.45;0.60;;;;;;;;;;5015200;28;20019;-55
2022/08/10 09:09:08;;;;;;;2.58;0.55;;;;;;;;;;5014890;28;20030;-54
2022/08/10 09:11:44;;;;;;;1.23;0.45;;;;;;;;;;5014912;28;20030;-57
2022/08/10 09:14:22;;;;;;;0.98;0.55;;;;;;;;;;5014688;28;20030;-52
2022/08/10 09:16:58;;;;;;;2.58;0.50;;;;;;;;;;5014973;28;20101;-55
2022/08/10 09:19:25;;;;;;;0.55;0.50;;;;;;;;;;5014776;28;20064;-56
2022/08/10 09:22:02;;;;;;;1.95;0.60;;;;;;;;;;5014784;28;20018;-55
2022/08/10 09:24:41;;;;;;;0.40;0.40;;;;;;;;;;5014780;28;20022;-56
2022/08/10 09:27:21;;;;;;;2.45;0.50;;;;;;;;;;5014765;28;20025;-55
2022/08/10 09:29:57;;;;;;;2.30;0.40;;;;;;;;;;5014477;28;20026;-54
2022/08/10 09:32:45;;;;;;;3.28;0.70;;;;;;;;;;5014499;28;20384;-56
2022/08/10 09:35:16;;;;;;;3.17;0.60;;;;;;;;;;5014130;28;20033;-58
2022/08/10 09:37:46;;;;;;;1.52;0.50;;;;;;;;;;5014453;28;20018;-57
2022/08/10 09:40:17;;;;;;;3.38;0.70;;;;;;;;;;5014226;28;20022;-57
2022/08/10 09:43:03;;;;;;;0.90;0.50;;;;;;;;;;5014187;28;20042;-56
2022/08/10 09:45:45;;;;;;;2.80;0.70;;;;;;;;;;5014359;28;20018;-56
2022/08/10 09:48:25;;;;;;;4.63;0.50;;;;;;;;;;5014296;28;20064;-57
2022/08/10 09:51:14;;;;;;;1.75;0.40;;;;;;;;;;5014158;28;20403;-57
2022/08/10 09:53:54;;;;;;;1.75;0.60;;;;;;;;;;5014014;28;20454;-58
2022/08/10 09:56:21;;;;;;;2.58;0.60;;;;;;;;;;5014197;28;20018;-56
2022/08/10 09:58:48;;;;;;;6.72;0.82;;;;;;;;;;5014169;28;20045;-57
2022/08/10 10:01:15;;;;;;;2.15;0.50;;;;;;;;;;5014087;28;20029;-57
2022/08/10 10:03:46;;;;;;;1.38;0.47;;;;;;;;;;5013999;28;20034;-58
2022/08/10 10:06:17;;;;;;;2.70;0.55;;;;;;;;;;5013878;28;20156;-57
2022/08/10 10:09:07;;;;;;;0.52;0.40;;;;;;;;;;5013917;28;20065;-55
2022/08/10 10:11:59;;;;;;;2.03;0.63;;;;;;;;;;5013897;28;20034;-57
2022/08/10 10:15:19;;;;;;;0.90;0.57;;;;;;;;;;5013731;28;20030;-58
2022/08/10 10:17:29;;;;;;;1.15;0.52;;;;;;;;;;5013580;28;20037;-57
2022/08/10 10:20:21;;;;;;;1.15;0.40;;;;;;;;;;5013659;28;20522;-56
2022/08/10 10:23:06;;;;;;;1.58;0.50;;;;;;;;;;5013544;28;20487;-57
2022/08/10 10:25:33;;;;;;;0.52;0.47;;;;;;;;;;5013570;28;20040;-57
2022/08/10 10:28:09;;;;;;;1.80;0.70;;;;;;;;;;5013494;28;20161;-57
2022/08/10 10:30:59;;;;;;;1.63;0.52;;;;;;;;;;5013379;28;20048;-56
2022/08/10 10:33:44;;;;;;;0.50;0.45;;;;;;;;;;4968358;28;20034;-54
2022/08/10 10:36:14;;;;;;;0.77;0.40;;;;;;;;;;5013438;28;20045;-57
2022/08/10 10:38:42;;;;;;;0.77;0.55;;;;;;;;;;5013460;28;20109;-57
2022/08/10 10:41:27;;;;;;;2.03;0.50;;;;;;;;;;5013287;28;20105;-56
2022/08/10 10:44:03;;;;;;;1.70;0.50;;;;;;;;;;5013029;28;20392;-58
2022/08/10 10:46:30;;;;;;;0.80;0.50;;;;;;;;;;5013218;28;20494;-54
2022/08/10 10:49:07;;;;;;;2.08;0.50;;;;;;;;;;5013203;28;20065;-56
2022/08/10 10:51:38;;;;;;;0.75;0.38;;;;;;;;;;5013190;28;20123;-57
2022/08/10 10:54:04;;;;;;;0.68;0.40;;;;;;;;;;5012545;28;20037;-57
2022/08/10 10:56:49;;;;;;;0.70;0.30;;;;;;;;;;5013156;28;20030;-57
2022/08/10 10:59:19;;;;;;;0.57;0.40;;;;;;;;;;5013166;28;20161;-56
2022/08/10 11:02:01;;;;;;;1.02;0.50;;;;;;;;;;5012477;28;20034;-54
2022/08/10 11:04:35;;;;;;;1.95;0.60;;;;;;;;;;5012312;28;20034;-58
2022/08/10 11:07:12;;;;;;;0.70;0.50;;;;;;;;;;5012912;28;20022;-56
2022/08/10 11:09:52;;;;;;;2.63;0.50;;;;;;;;;;5012512;28;20103;-54
2022/08/10 11:12:45;;;;;;;2.50;0.57;;;;;;;;;;5005904;28;20180;-58
2022/08/10 11:15:31;;;;;;;1.60;0.70;;;;;;;;;;5007263;28;20511;-58
2022/08/10 11:18:24;;;;;;;2.20;0.50;;;;;;;;;;5009766;28;20072;-58
2022/08/10 11:21:00;;;;;;;3.13;0.60;;;;;;;;;;5007271;28;20524;-53
2022/08/10 11:23:45;;;;;;;4.18;0.82;;;;;;;;;;5008100;28;20028;-55
2022/08/10 11:26:12;;;;;;;3.05;0.90;;;;;;;;;;5010268;28;20112;-52
2022/08/10 11:28:39;;;;;;;1.85;0.73;;;;;;;;;;5011330;28;20377;-55
2022/08/10 11:31:26;;;;;;;1.83;0.80;;;;;;;;;;5009453;28;20032;-53
2022/08/10 11:33:56;;;;;;;3.42;0.90;;;;;;;;;;5009667;28;20488;-58
2022/08/10 11:36:41;;;;;;;3.08;0.98;;;;;;;;;;5011825;28;20038;-50
2022/08/10 11:39:14;;;;;;;5.82;0.80;;;;;;;;;;5008553;28;20064;-56
2022/08/10 11:41:44;;;;;;;4.97;0.70;;;;;;;;;;4985918;28;20414;-50
2022/08/10 11:44:17;;;;;;;3.05;0.90;;;;;;;;;;5008295;28;20054;-54
2022/08/10 11:47:04;;;;;;;2.45;0.90;;;;;;;;;;5011622;28;20046;-53
2022/08/10 11:49:31;;;;;;;3.22;1.10;;;;;;;;;;5008653;28;20434;-52
2022/08/10 11:52:03;;;;;;;2.33;0.68;;;;;;;;;;5010877;28;20061;-49
2022/08/10 11:54:35;;;;;;;3.63;0.98;;;;;;;;;;5011083;28;20040;-56
2022/08/10 11:57:02;;;;;;;1.48;0.70;;;;;;;;;;5009573;28;20084;-50
2022/08/10 12:02:20;;;;;;;1.05;0.60;;;;;;;;;;5001254;28;20049;-52
2022/08/10 12:05:15;;;;;;;1.45;0.80;;;;;;;;;;5014240;28;20040;-51
2022/08/10 12:07:45;;;;;;;2.20;0.68;;;;;;;;;;4996802;28;20492;-52
2022/08/10 12:10:13;;;;;;;1.67;0.75;;;;;;;;;;5014647;28;20025;-52
2022/08/10 12:12:54;;;;;;;5.25;0.80;;;;;;;;;;5014757;28;20025;-53
2022/08/10 12:15:27;;;;;;;1.35;0.80;;;;;;;;;;5012794;28;20033;-55
2022/08/10 12:17:59;;;;;;;1.00;0.70;;;;;;;;;;5014766;28;20036;-55
2022/08/10 12:20:26;;;;;;;2.70;0.65;;;;;;;;;;5012655;28;20026;-58
2022/08/10 12:22:55;;;;;;;2.63;0.73;;;;;;;;;;4996482;28;20386;-53
2022/08/10 12:25:36;;;;;;;1.77;0.75;;;;;;;;;;5015080;28;20089;-53
2022/08/10 12:28:11;;;;;;;2.05;0.60;;;;;;;;;;5013165;28;20030;-54
2022/08/10 12:30:41;;;;;;;2.20;0.70;;;;;;;;;;5014791;28;20069;-53
2022/08/10 12:33:10;;;;;;;2.30;0.60;;;;;;;;;;5014456;28;20034;-57
2022/08/10 12:36:01;;;;;;;3.03;0.60;;;;;;;;;;5015064;28;20058;-55
2022/08/10 12:38:40;;;;;;;5.35;0.60;;;;;;;;;;5006863;28;20030;-54
2022/08/10 12:41:10;;;;;;;7.95;0.80;;;;;;;;;;5013348;28;20513;-54
2022/08/10 12:43:40;;;;;;;2.60;0.60;;;;;;;;;;5013486;28;20448;-55
2022/08/10 12:46:12;;;;;;;4.60;0.70;;;;;;;;;;4997872;28;20042;-51
2022/08/10 12:48:42;;;;;;;2.65;0.70;;;;;;;;;;5014982;28;20034;-56
2022/08/10 12:51:18;;;;;;;5.22;1.00;;;;;;;;;;5011536;28;20034;-59
2022/08/10 12:54:02;;;;;;;2.83;0.90;;;;;;;;;;5012450;28;20041;-52
2022/08/10 12:56:34;;;;;;;4.15;0.90;;;;;;;;;;5013908;28;20025;-57
2022/08/10 12:59:04;;;;;;;5.53;1.00;;;;;;;;;;5014852;28;20125;-55
2022/08/10 13:01:32;;;;;;;4.97;1.10;;;;;;;;;;5014642;28;20045;-59
2022/08/10 13:04:01;;;;;;;7.85;1.05;;;;;;;;;;5013620;28;20491;-58
2022/08/10 13:06:30;;;;;;;7.50;1.08;;;;;;;;;;5014856;28;20092;-57
2022/08/10 13:09:11;;;;;;;5.05;0.90;;;;;;;;;;5015014;28;20046;-58
2022/08/10 13:11:41;;;;;;;6.10;1.25;;;;;;;;;;5014349;28;20117;-52
2022/08/10 13:14:20;;;;;;;8.70;1.42;;;;;;;;;;5013529;28;20034;-56
2022/08/10 13:16:48;;;;;;;10.80;2.00;;;;;;;;;;5014215;28;20022;-55
2022/08/10 13:19:20;;;;;;;5.88;1.90;;;;;;;;;;5014204;28;20041;-54
2022/08/10 13:21:47;;;;;;;6.90;1.63;;;;;;;;;;5013900;28;20044;-62
2022/08/10 13:24:19;;;;;;;4.63;1.90;;;;;;;;;;5013839;28;20049;-56
2022/08/10 13:26:55;;;;;;;7.10;2.30;;;;;;;;;;5014366;28;20030;-58
2022/08/10 13:29:23;;;;;;;6.22;1.65;;;;;;;;;;5014502;28;20499;-57
2022/08/10 13:31:53;;;;;;;5.15;1.70;;;;;;;;;;5012597;28;20034;-60
2022/08/10 13:34:24;;;;;;;3.10;1.70;;;;;;;;;;5012905;28;20470;-57
2022/08/10 13:36:54;;;;;;;5.43;1.60;;;;;;;;;;5013913;28;20495;-51
2022/08/10 13:39:23;;;;;;;6.38;1.50;;;;;;;;;;5012884;28;20126;-53
2022/08/10 13:41:52;;;;;;;6.38;1.70;;;;;;;;;;5013191;28;20101;-53
2022/08/10 13:44:32;;;;;;;3.30;1.70;;;;;;;;;;4986621;28;20404;-53
2022/08/10 13:47:00;;;;;;;6.25;1.65;;;;;;;;;;4993763;28;20026;-54
2022/08/10 13:49:28;;;;;;;4.03;1.80;;;;;;;;;;4994525;28;20026;-55
2022/08/10 13:51:56;;;;;;;4.72;1.55;;;;;;;;;;4991523;28;20065;-51
2022/08/10 13:54:25;;;;;;;6.45;1.50;;;;;;;;;;4993975;28;20085;-57
2022/08/10 13:56:52;;;;;;;4.00;1.58;;;;;;;;;;4993116;28;20031;-51
2022/08/10 13:59:20;;;;;;;3.78;1.73;;;;;;;;;;4993823;28;20500;-56
2022/08/10 14:01:50;;;;;;;5.53;1.70;;;;;;;;;;4993266;28;20045;-54
2022/08/10 14:04:19;;;;;;;3.20;1.20;;;;;;;;;;4993882;28;20038;-54
2022/08/10 14:06:56;;;;;;;4.43;1.20;;;;;;;;;;4993308;28;20373;-53
2022/08/10 14:09:25;;;;;;;7.80;1.52;;;;;;;;;;4993174;28;20061;-60
2022/08/10 14:11:52;;;;;;;4.00;1.40;;;;;;;;;;4993218;28;20027;-57
2022/08/10 14:14:20;;;;;;;5.63;1.20;;;;;;;;;;4993320;28;20483;-56
2022/08/10 14:16:47;;;;;;;5.50;1.45;;;;;;;;;;4986627;28;20542;-58
2022/08/10 14:19:20;;;;;;;8.15;1.52;;;;;;;;;;4992239;28;20038;-58
2022/08/10 14:21:47;;;;;;;7.63;1.25;;;;;;;;;;4992298;28;20488;-56
2022/08/10 14:24:21;;;;;;;4.35;1.27;;;;;;;;;;4992927;28;20121;-54
2022/08/10 14:27:08;;;;;;;6.80;1.85;;;;;;;;;;4991741;28;20022;-56
2022/08/10 14:29:46;;;;;;;6.13;1.65;;;;;;;;;;4991607;28;20134;-55
2022/08/10 14:32:15;;;;;;;7.60;1.40;;;;;;;;;;4993148;28;20044;-58
2022/08/10 14:34:45;;;;;;;9.68;1.70;;;;;;;;;;4993500;28;20030;-55
2022/08/10 14:37:16;;;;;;;4.68;1.58;;;;;;;;;;4992314;28;20057;-59
2022/08/10 14:39:45;;;;;;;3.80;1.20;;;;;;;;;;4992569;28;20484;-54
2022/08/10 14:42:15;;;;;;;7.40;1.60;;;;;;;;;;4992640;28;20061;-56
2022/08/10 14:44:44;;;;;;;6.10;1.50;;;;;;;;;;4993438;28;20038;-52
2022/08/10 14:47:12;;;;;;;7.93;1.67;;;;;;;;;;4992979;28;20108;-54
2022/08/10 14:49:40;;;;;;;8.23;1.50;;;;;;;;;;4992327;28;20046;-59
2022/08/10 14:52:08;;;;;;;5.05;1.40;;;;;;;;;;4993086;28;20109;-57
2022/08/10 14:54:36;;;;;;;10.82;1.63;;;;;;;;;;4992798;28;20034;-52
2022/08/10 14:57:05;;;;;;;4.88;1.52;;;;;;;;;;4992110;28;20388;-56
2022/08/10 14:59:32;;;;;;;7.18;1.80;;;;;;;;;;4992054;28;20085;-57
2022/08/10 15:02:02;;;;;;;7.15;1.60;;;;;;;;;;4993068;28;20027;-59
2022/08/10 15:04:30;;;;;;;8.05;2.03;;;;;;;;;;4993075;28;20069;-53
2022/08/10 15:07:17;;;;;;;7.68;1.80;;;;;;;;;;4991791;28;20033;-56
2022/08/10 15:09:45;;;;;;;9.85;2.00;;;;;;;;;;4991859;28;20030;-59
2022/08/10 15:12:13;;;;;;;7.55;1.75;;;;;;;;;;4991874;28;20050;-59
2022/08/10 15:14:42;;;;;;;8.25;1.73;;;;;;;;;;4991266;28;20093;-56